Time;durP1;ratioP1;P1;durP2;ratioP2;P2;SDS_P1;SDS_P2;PMS_P1;PMS_P2;Temp;Humidity;BMP_temperature;BMP_pressure;BME280_temperature;BME280_humidity;BME280_pressure;Samples;Min_cycle;Max_cycle;Signal;HPM_P1;HPM_P2
2023/10/20 00:01:03;;;;;;;0.10;0.10;;;24.80;47.30;;;;;;6198079;28;20046;-65
2023/10/20 00:04:04;;;;;;;0.40;0.32;;;24.70;47.60;;;;;;6216533;28;20032;-66
2023/10/20 00:07:05;;;;;;;0.30;0.28;;;24.70;47.70;;;;;;6205013;28;20518;-65
2023/10/20 00:10:09;;;;;;;0.93;0.10;;;24.70;47.70;;;;;;6206314;28;20041;-64
2023/10/20 00:13:10;;;;;;;1.17;0.38;;;24.70;47.60;;;;;;6208547;28;20028;-64
2023/10/20 00:16:36;;;;;;;5.68;0.28;;;24.70;47.70;;;;;;6198927;28;20042;-65
2023/10/20 00:19:37;;;;;;;1.13;0.13;;;24.70;47.50;;;;;;6211239;28;20622;-64
2023/10/20 00:23:03;;;;;;;1.40;0.60;;;24.70;48.20;;;;;;6206199;28;20041;-64
2023/10/20 00:26:29;;;;;;;0.10;0.10;;;24.70;47.70;;;;;;6214349;28;20646;-65
2023/10/20 00:29:55;;;;;;;0.45;0.30;;;24.70;47.60;;;;;;6200065;28;20419;-64
2023/10/20 00:33:21;;;;;;;0.10;0.10;;;24.70;47.70;;;;;;6206973;28;20514;-66
2023/10/20 00:36:21;;;;;;;0.20;0.20;;;24.60;48.00;;;;;;6205387;28;20088;-65
2023/10/20 00:39:23;;;;;;;0.45;0.20;;;24.60;48.30;;;;;;6208453;28;20087;-65
2023/10/20 00:42:51;;;;;;;0.45;0.03;;;24.40;48.70;;;;;;6204346;28;20106;-66
2023/10/20 00:45:56;;;;;;;2.05;0.20;;;24.30;49.10;;;;;;6216149;28;20410;-64
2023/10/20 00:49:23;;;;;;;0.30;0.10;;;24.20;49.40;;;;;;6205385;28;20049;-65
2023/10/20 00:52:50;;;;;;;0.30;0.10;;;24.20;49.70;;;;;;6204086;28;20034;-64
2023/10/20 00:55:51;;;;;;;1.45;0.20;;;24.10;49.80;;;;;;6198019;28;20038;-65
2023/10/20 00:59:18;;;;;;;0.10;0.10;;;24.10;49.90;;;;;;6208241;28;20444;-64
2023/10/20 01:02:44;;;;;;;1.83;0.43;;;24.20;49.80;;;;;;6201942;28;20046;-64
2023/10/20 01:05:48;;;;;;;0.40;0.10;;;24.30;49.50;;;;;;6191159;28;20065;-65
2023/10/20 01:09:27;;;;;;;0.00;0.00;;;24.30;49.10;;;;;;6199088;28;20148;-66
2023/10/20 01:12:54;;;;;;;0.00;0.00;;;24.50;48.70;;;;;;6207595;28;20046;-66
2023/10/20 01:16:20;;;;;;;0.00;0.00;;;24.60;48.30;;;;;;6206832;28;20446;-65
2023/10/20 01:19:21;;;;;;;0.77;0.03;;;24.70;48.10;;;;;;6195594;28;20076;-66
2023/10/20 01:22:47;;;;;;;0.00;0.00;;;24.70;47.90;;;;;;6191376;28;20203;-65
2023/10/20 01:25:53;;;;;;;2.40;0.00;;;24.80;47.60;;;;;;6190370;28;20026;-64
2023/10/20 01:28:53;;;;;;;0.00;0.00;;;24.80;47.50;;;;;;6206391;28;20058;-65
2023/10/20 01:32:19;;;;;;;0.00;0.00;;;24.90;47.40;;;;;;6216449;28;20630;-65
2023/10/20 01:35:45;;;;;;;0.45;0.20;;;25.00;47.20;;;;;;6215874;28;20041;-65
2023/10/20 01:38:49;;;;;;;0.00;0.00;;;25.00;47.40;;;;;;6214027;28;20057;-65
2023/10/20 01:42:15;;;;;;;0.20;0.10;;;24.90;47.80;;;;;;6216271;28;20037;-65
2023/10/20 01:45:19;;;;;;;0.52;0.20;;;24.80;48.40;;;;;;6213933;28;20041;-65
2023/10/20 01:48:45;;;;;;;0.50;0.20;;;24.60;48.90;;;;;;6215785;28;20045;-66
2023/10/20 01:51:47;;;;;;;0.00;0.00;;;24.50;49.40;;;;;;6215498;28;20139;-66
2023/10/20 01:55:13;;;;;;;1.30;0.20;;;24.40;49.60;;;;;;6215405;28;20045;-64
2023/10/20 01:58:19;;;;;;;0.03;0.03;;;24.40;50.10;;;;;;6213059;28;20472;-65
2023/10/20 02:01:22;;;;;;;0.25;0.25;;;24.30;50.80;;;;;;6199187;28;20030;-66
2023/10/20 02:04:48;;;;;;;0.60;0.13;;;24.20;51.60;;;;;;6190981;28;20034;-65
2023/10/20 02:08:15;;;;;;;0.65;0.10;;;24.00;52.20;;;;;;6191036;28;20169;-64
2023/10/20 02:11:41;;;;;;;0.00;0.00;;;23.70;53.10;;;;;;6201927;28;20053;-64
2023/10/20 02:14:42;;;;;;;0.10;0.10;;;23.40;54.10;;;;;;6214806;28;20164;-65
2023/10/20 02:17:43;;;;;;;0.10;0.10;;;23.10;54.90;;;;;;6215112;28;20030;-65
2023/10/20 02:20:44;;;;;;;0.73;0.38;;;22.90;55.30;;;;;;6213066;28;20431;-64
2023/10/20 02:24:10;;;;;;;0.05;0.05;;;22.80;55.70;;;;;;6215284;28;20120;-66
2023/10/20 02:27:39;;;;;;;4.30;0.13;;;22.80;56.30;;;;;;6215175;28;20043;-65
2023/10/20 02:30:40;;;;;;;1.50;0.35;;;22.90;56.10;;;;;;6212933;28;20268;-64
2023/10/20 02:34:06;;;;;;;1.35;0.20;;;23.00;55.80;;;;;;6190609;28;20424;-64
2023/10/20 02:37:09;;;;;;;2.30;0.17;;;23.10;55.90;;;;;;6190493;28;20157;-66
2023/10/20 02:40:35;;;;;;;1.85;0.10;;;23.10;55.70;;;;;;6190508;28;20401;-68
2023/10/20 02:43:40;;;;;;;0.00;0.00;;;23.20;55.60;;;;;;6190052;28;20034;-66
2023/10/20 02:46:41;;;;;;;0.80;0.30;;;23.30;55.70;;;;;;6190235;28;20104;-65
2023/10/20 02:49:42;;;;;;;2.55;0.20;;;23.30;55.60;;;;;;6188344;28;20503;-63
2023/10/20 02:52:44;;;;;;;0.38;0.10;;;23.60;55.70;;;;;;6190048;28;20026;-66
2023/10/20 02:55:46;;;;;;;0.10;0.10;;;23.40;55.40;;;;;;6172325;28;20125;-65
2023/10/20 02:58:47;;;;;;;0.75;0.10;;;23.40;55.40;;;;;;6188230;28;20049;-65
2023/10/20 03:02:14;;;;;;;0.05;0.05;;;23.50;55.40;;;;;;6213509;28;20041;-66
2023/10/20 03:05:15;;;;;;;0.30;0.10;;;23.50;55.00;;;;;;6212911;28;20056;-65
2023/10/20 03:08:41;;;;;;;1.15;0.22;;;23.50;54.70;;;;;;6218299;28;20049;-65
2023/10/20 03:12:07;;;;;;;0.00;0.00;;;23.60;54.50;;;;;;6221767;28;20046;-65
2023/10/20 03:15:11;;;;;;;1.85;0.20;;;23.60;54.40;;;;;;6218959;28;20030;-65
2023/10/20 03:18:14;;;;;;;1.40;0.20;;;23.60;54.40;;;;;;6217905;28;20026;-64
2023/10/20 03:21:15;;;;;;;0.70;0.20;;;23.60;54.40;;;;;;6219264;28;20026;-66
2023/10/20 03:24:16;;;;;;;1.02;0.38;;;23.70;54.10;;;;;;6217228;28;20073;-66
2023/10/20 03:27:42;;;;;;;1.15;0.35;;;23.80;53.70;;;;;;6219713;28;20041;-66
2023/10/20 03:30:43;;;;;;;1.27;0.40;;;23.80;53.50;;;;;;6218199;28;20026;-65
2023/10/20 03:34:09;;;;;;;0.22;0.13;;;23.80;53.40;;;;;;6218775;28;20037;-65
2023/10/20 03:37:35;;;;;;;0.70;0.38;;;23.80;53.50;;;;;;6218872;28;20492;-66
2023/10/20 03:40:37;;;;;;;0.20;0.20;;;23.70;53.40;;;;;;6216653;28;20030;-63
2023/10/20 03:43:38;;;;;;;7.63;0.60;;;23.60;53.70;;;;;;6216818;28;20057;-65
2023/10/20 03:47:05;;;;;;;3.08;0.70;;;23.40;54.10;;;;;;6218718;28;20142;-64
2023/10/20 03:50:16;;;;;;;0.95;0.38;;;23.40;54.30;;;;;;6218035;28;20030;-65
2023/10/20 03:53:52;;;;;;;0.65;0.40;;;23.40;54.40;;;;;;6218464;28;20045;-66
2023/10/20 03:57:19;;;;;;;0.35;0.30;;;23.40;54.40;;;;;;6218438;28;20042;-66
2023/10/20 04:00:29;;;;;;;2.30;0.70;;;23.40;55.20;;;;;;6208339;28;20034;-66
2023/10/20 04:03:55;;;;;;;3.58;0.60;;;23.30;54.80;;;;;;6194525;28;20042;-65
2023/10/20 04:07:21;;;;;;;1.55;0.40;;;23.30;55.10;;;;;;6194058;28;20046;-65
2023/10/20 04:10:22;;;;;;;1.17;0.32;;;23.20;55.50;;;;;;6175804;28;20539;-66
2023/10/20 04:13:49;;;;;;;0.52;0.30;;;23.10;55.70;;;;;;6217509;28;20049;-65
2023/10/20 04:17:15;;;;;;;1.83;0.50;;;23.00;56.10;;;;;;6205218;28;20739;-65
2023/10/20 04:20:18;;;;;;;3.60;0.43;;;23.00;56.40;;;;;;6192236;28;20101;-67
2023/10/20 04:23:44;;;;;;;0.28;0.20;;;22.90;56.60;;;;;;6196664;28;20412;-64
2023/10/20 04:26:45;;;;;;;0.30;0.20;;;22.80;57.50;;;;;;6216647;28;20051;-65
2023/10/20 05:02:33;;;;;;;0.45;0.20;;;19.00;71.20;;;;;;6217267;28;20042;-66
2023/10/20 05:05:44;;;;;;;0.65;0.10;;;19.00;72.70;;;;;;6218376;28;20351;-65
2023/10/20 05:09:14;;;;;;;0.63;0.00;;;18.90;73.50;;;;;;6216027;28;20061;-67
2023/10/20 05:12:18;;;;;;;0.00;0.00;;;18.80;73.70;;;;;;6213698;28;20050;-67
2023/10/20 05:15:19;;;;;;;0.43;0.00;;;18.80;73.60;;;;;;6189829;28;20038;-65
2023/10/20 05:18:20;;;;;;;4.38;0.28;;;18.80;73.40;;;;;;6206689;28;20466;-66
2023/10/20 05:21:21;;;;;;;1.45;0.35;;;18.80;73.80;;;;;;6213107;28;20162;-66
2023/10/20 05:24:22;;;;;;;0.40;0.20;;;18.80;74.00;;;;;;6214962;28;20074;-65
2023/10/20 05:27:48;;;;;;;0.55;0.15;;;18.70;73.70;;;;;;6211894;28;20042;-67
2023/10/20 05:31:14;;;;;;;2.00;0.13;;;18.70;73.80;;;;;;6214134;28;20041;-65
2023/10/20 05:34:15;;;;;;;1.02;0.15;;;18.60;74.10;;;;;;6212884;28;20731;-67
2023/10/20 05:37:41;;;;;;;0.93;0.30;;;18.50;74.40;;;;;;6213670;28;20034;-66
2023/10/20 05:41:07;;;;;;;0.47;0.10;;;18.40;74.40;;;;;;6214796;28;20042;-66
2023/10/20 05:44:11;;;;;;;0.22;0.22;;;18.50;74.20;;;;;;6214729;28;20418;-65
2023/10/20 05:47:38;;;;;;;0.15;0.10;;;18.40;74.10;;;;;;6215133;28;20037;-66
2023/10/20 05:50:42;;;;;;;2.63;0.10;;;18.30;73.90;;;;;;6212809;28;20060;-68
2023/10/20 05:54:08;;;;;;;0.10;0.05;;;18.30;73.70;;;;;;6214893;28;20042;-65
2023/10/20 05:57:34;;;;;;;0.63;0.13;;;18.30;73.40;;;;;;6214484;28;20041;-66
2023/10/20 06:00:36;;;;;;;0.22;0.10;;;18.30;73.20;;;;;;6214188;28;20036;-66
2023/10/20 06:04:03;;;;;;;1.25;0.03;;;18.40;73.20;;;;;;6213876;28;20034;-66
2023/10/20 06:07:04;;;;;;;2.35;0.28;;;18.40;73.10;;;;;;6214443;28;20034;-65
2023/10/20 06:10:05;;;;;;;2.92;0.40;;;18.40;72.90;;;;;;6213963;28;20026;-67
2023/10/20 06:13:06;;;;;;;0.28;0.13;;;18.50;72.70;;;;;;6213862;28;20053;-66
2023/10/20 06:16:11;;;;;;;0.25;0.10;;;18.50;72.80;;;;;;6214672;28;20800;-68
2023/10/20 06:19:12;;;;;;;0.10;0.10;;;18.50;72.80;;;;;;6214252;28;20497;-67
2023/10/20 06:22:13;;;;;;;0.10;0.10;;;18.60;72.90;;;;;;6214069;28;20102;-67
2023/10/20 06:25:14;;;;;;;0.47;0.20;;;18.60;72.80;;;;;;6212210;28;20037;-67
2023/10/20 06:28:15;;;;;;;0.10;0.10;;;18.70;72.70;;;;;;6213741;28;20407;-65
2023/10/20 06:34:40;;;;;;;3.55;0.30;;;18.80;72.50;;;;;;6213695;28;20041;-65
2023/10/20 06:37:46;;;;;;;1.95;0.40;;;18.90;72.60;;;;;;6212103;28;20478;-67
2023/10/20 06:40:47;;;;;;;0.20;0.20;;;18.90;72.60;;;;;;6213806;28;20467;-67
2023/10/20 06:44:13;;;;;;;1.95;0.60;;;18.80;72.60;;;;;;6213677;28;20137;-66
2023/10/20 06:47:18;;;;;;;1.70;0.50;;;18.80;72.70;;;;;;6213883;28;20064;-66
2023/10/20 06:50:22;;;;;;;1.02;0.45;;;18.80;72.90;;;;;;6213173;28;20034;-67
2023/10/20 06:53:48;;;;;;;2.85;0.43;;;18.50;72.70;;;;;;6213972;28;20080;-67
2023/10/20 06:56:52;;;;;;;3.80;0.70;;;18.80;73.00;;;;;;6213259;28;20478;-66
2023/10/20 06:59:53;;;;;;;2.40;0.43;;;18.80;73.20;;;;;;6213986;28;20037;-66
2023/10/20 07:02:54;;;;;;;1.80;0.40;;;18.80;73.20;;;;;;6195919;28;20032;-65
2023/10/20 07:05:55;;;;;;;1.90;0.70;;;18.80;73.40;;;;;;6211655;28;20026;-65
2023/10/20 07:08:57;;;;;;;2.47;0.85;;;18.80;73.40;;;;;;6213327;28;20824;-66
2023/10/20 07:12:23;;;;;;;1.13;0.88;;;18.80;73.30;;;;;;6201220;28;20491;-65
2023/10/20 07:15:24;;;;;;;2.40;0.68;;;18.80;73.50;;;;;;6211959;28;20064;-66
2023/10/20 07:18:25;;;;;;;2.05;1.02;;;18.80;73.80;;;;;;6213268;28;20053;-66
2023/10/20 07:21:53;;;;;;;8.73;2.97;;;18.80;74.00;;;;;;6213838;28;20034;-66
2023/10/20 07:25:19;;;;;;;11.43;3.60;;;18.80;74.00;;;;;;6212356;28;20435;-66
2023/10/20 07:28:46;;;;;;;3.17;1.50;;;18.80;74.00;;;;;;6213373;28;20049;-65
2023/10/20 07:32:12;;;;;;;5.75;1.13;;;18.80;74.20;;;;;;6213830;28;20042;-65
2023/10/20 07:35:17;;;;;;;2.53;1.23;;;18.80;74.20;;;;;;6213499;28;20040;-67
2023/10/20 07:38:44;;;;;;;4.07;0.85;;;18.80;74.20;;;;;;6211896;28;20060;-66
2023/10/20 07:41:45;;;;;;;1.73;1.10;;;18.90;74.30;;;;;;6213026;28;20077;-67
2023/10/20 07:45:12;;;;;;;1.48;0.80;;;18.90;74.30;;;;;;6213406;28;20045;-67
2023/10/20 07:48:16;;;;;;;1.08;0.40;;;18.90;74.30;;;;;;6211722;28;20040;-66
2023/10/20 07:51:42;;;;;;;2.08;0.75;;;18.90;74.30;;;;;;6213604;28;20042;-66
2023/10/20 07:55:08;;;;;;;5.13;0.82;;;18.90;74.40;;;;;;6214685;28;20042;-66
2023/10/20 07:58:12;;;;;;;1.92;0.50;;;18.90;74.60;;;;;;6217663;28;20028;-66
2023/10/20 08:01:14;;;;;;;0.13;0.13;;;18.80;74.50;;;;;;6214571;28;20038;-67
2023/10/20 08:04:16;;;;;;;1.63;0.60;;;18.80;74.60;;;;;;6191933;28;20057;-66
2023/10/20 08:07:18;;;;;;;0.68;0.35;;;18.80;74.70;;;;;;6193043;28;20426;-65
2023/10/20 08:10:19;;;;;;;2.00;0.88;;;18.80;74.50;;;;;;6192333;28;20035;-66
2023/10/20 08:14:09;;;;;;;0.80;0.50;;;18.80;74.50;;;;;;6217350;28;20037;-67
2023/10/20 08:18:28;;;;;;;0.82;0.40;;;18.80;74.70;;;;;;6217035;28;20038;-67
2023/10/20 08:21:55;;;;;;;3.30;0.65;;;18.80;74.70;;;;;;6216855;28;20030;-65
2023/10/20 08:24:57;;;;;;;4.47;0.73;;;18.70;74.80;;;;;;6216485;28;20109;-65
2023/10/20 08:28:25;;;;;;;2.38;0.65;;;18.60;74.70;;;;;;6216902;28;20519;-66
2023/10/20 08:31:51;;;;;;;0.95;0.40;;;18.60;74.70;;;;;;6217023;28;20514;-65
2023/10/20 08:34:53;;;;;;;2.20;0.70;;;18.50;74.70;;;;;;6216694;28;20581;-67
2023/10/20 08:38:19;;;;;;;3.45;1.50;;;18.60;74.90;;;;;;6215738;28;20050;-66
2023/10/20 08:41:45;;;;;;;10.15;1.23;;;18.60;75.00;;;;;;6216626;28;20034;-67
2023/10/20 08:44:50;;;;;;;1.70;0.65;;;18.50;74.80;;;;;;6216715;28;20026;-66
2023/10/20 08:48:45;;;;;;;2.42;0.95;;;18.50;74.90;;;;;;6216988;28;20075;-68
2023/10/20 08:52:12;;;;;;;3.05;1.02;;;18.50;75.00;;;;;;6217502;28;20056;-66
2023/10/20 08:55:13;;;;;;;3.95;0.73;;;18.50;75.20;;;;;;6216023;28;20094;-66
2023/10/20 08:58:39;;;;;;;2.30;0.85;;;18.60;75.30;;;;;;6203103;28;20089;-66
2023/10/20 09:01:42;;;;;;;0.35;0.28;;;18.60;75.20;;;;;;6211663;28;20078;-65
2023/10/20 09:04:43;;;;;;;5.03;0.40;;;18.60;75.10;;;;;;6213883;28;20438;-66
2023/10/20 09:07:59;;;;;;;6.47;0.70;;;18.60;75.10;;;;;;6214701;28;20040;-66
2023/10/20 09:11:00;;;;;;;2.40;0.50;;;18.60;75.10;;;;;;6213756;28;20517;-66
2023/10/20 09:14:03;;;;;;;1.30;0.40;;;18.60;75.10;;;;;;6215461;28;20037;-67
2023/10/20 09:17:08;;;;;;;1.23;0.52;;;18.60;75.10;;;;;;6215812;28;20088;-65
2023/10/20 09:20:14;;;;;;;2.33;0.88;;;18.50;75.10;;;;;;6215212;28;20038;-66
2023/10/20 09:23:19;;;;;;;1.08;0.60;;;18.50;75.10;;;;;;6215934;28;20080;-65
2023/10/20 09:26:20;;;;;;;3.40;1.30;;;18.50;75.00;;;;;;6213976;28;20538;-67
2023/10/20 09:29:47;;;;;;;2.78;1.27;;;18.50;75.10;;;;;;6215286;28;20042;-65
2023/10/20 09:32:47;;;;;;;1.17;1.00;;;18.50;75.20;;;;;;6213046;28;20461;-67
2023/10/20 09:35:50;;;;;;;2.55;0.90;;;18.50;75.30;;;;;;6215177;28;20065;-67
2023/10/20 09:38:52;;;;;;;7.22;3.47;;;18.50;75.30;;;;;;6213481;28;20084;-65
2023/10/20 09:41:55;;;;;;;12.80;4.22;;;18.50;75.40;;;;;;6214437;28;20025;-68
2023/10/20 09:45:09;;;;;;;10.07;3.13;;;18.60;75.30;;;;;;6214904;28;20155;-66
2023/10/20 09:48:20;;;;;;;4.82;1.40;;;18.60;75.30;;;;;;6213260;28;20143;-65
2023/10/20 09:51:21;;;;;;;10.77;4.57;;;18.60;75.20;;;;;;6215108;28;20038;-67
2023/10/20 09:54:29;;;;;;;6.72;2.30;;;18.60;75.10;;;;;;6206326;28;20360;-65
2023/10/20 09:57:30;;;;;;;9.75;4.18;;;18.70;75.30;;;;;;6213334;28;20037;-68
2023/10/20 10:00:34;;;;;;;11.38;2.67;;;18.70;75.40;;;;;;6213814;28;20083;-66
2023/10/20 10:03:40;;;;;;;5.22;2.30;;;18.70;75.30;;;;;;6214391;28;20120;-66
2023/10/20 10:06:45;;;;;;;4.30;1.80;;;18.70;75.20;;;;;;6214097;28;20092;-66
2023/10/20 10:09:49;;;;;;;13.88;4.68;;;18.70;75.10;;;;;;6211739;28;20221;-66
2023/10/20 10:12:59;;;;;;;2.70;1.42;;;18.70;75.10;;;;;;6212333;28;20041;-69
2023/10/20 10:16:13;;;;;;;4.53;1.50;;;18.60;75.20;;;;;;6214284;28;20050;-66
2023/10/20 10:19:17;;;;;;;11.70;3.15;;;18.60;75.30;;;;;;6214063;28;20022;-66
2023/10/20 10:22:29;;;;;;;4.85;1.45;;;18.70;75.30;;;;;;6210752;28;20022;-66
2023/10/20 10:25:35;;;;;;;15.73;5.13;;;18.60;75.40;;;;;;6212177;28;20042;-66
2023/10/20 10:28:36;;;;;;;21.23;6.57;;;18.70;75.60;;;;;;6213113;28;20030;-66
2023/10/20 10:31:37;;;;;;;16.33;5.68;;;18.80;75.60;;;;;;6211245;28;20040;-65
2023/10/20 10:34:42;;;;;;;6.38;2.38;;;18.80;75.40;;;;;;6212640;28;20113;-67
2023/10/20 10:37:44;;;;;;;7.53;3.20;;;18.90;75.30;;;;;;6211931;28;20030;-66
2023/10/20 10:40:46;;;;;;;9.00;3.92;;;19.10;75.20;;;;;;6211537;28;20030;-65
2023/10/20 10:43:53;;;;;;;20.02;7.30;;;18.90;74.90;;;;;;6196724;28;20030;-65
2023/10/20 10:46:53;;;;;;;9.85;3.50;;;19.00;74.80;;;;;;6216669;28;20060;-67
2023/10/20 10:49:54;;;;;;;1.83;1.55;;;19.10;74.50;;;;;;6213418;28;20030;-67
2023/10/20 10:52:55;;;;;;;17.25;6.25;;;19.20;74.30;;;;;;6214284;28;20431;-66
2023/10/20 10:55:59;;;;;;;5.20;2.08;;;19.20;74.10;;;;;;6213315;28;20032;-67
2023/10/20 10:59:00;;;;;;;2.13;0.73;;;19.30;74.00;;;;;;6212941;28;20030;-66
2023/10/20 11:02:03;;;;;;;1.08;0.65;;;19.40;73.50;;;;;;6212935;28;20029;-67
2023/10/20 11:05:06;;;;;;;2.95;0.75;;;19.60;72.90;;;;;;6211084;28;20037;-67
2023/10/20 11:08:12;;;;;;;3.10;0.80;;;19.70;72.50;;;;;;6212978;28;20091;-68
2023/10/20 11:11:39;;;;;;;;;;;20.00;72.50;;;;;;6213324;28;20137;-65
2023/10/20 11:14:40;;;;;;;3.38;1.40;;;20.90;70.20;;;;;;6211332;28;20231;-66
2023/10/20 11:18:10;;;;;;;1.98;0.60;;;20.90;70.70;;;;;;6213337;28;20081;-68
2023/10/20 11:21:12;;;;;;;2.22;0.60;;;21.10;69.20;;;;;;6213235;28;20113;-67
2023/10/20 11:24:36;;;;;;;5.43;1.83;;;21.20;68.80;;;;;;6213253;28;20382;-65
2023/10/20 11:27:44;;;;;;;3.50;1.40;;;21.20;68.50;;;;;;6211880;28;20073;-66
2023/10/20 11:30:45;;;;;;;1.08;0.65;;;21.20;68.60;;;;;;6213262;28;20037;-67
2023/10/20 11:33:46;;;;;;;1.13;0.68;;;21.20;68.60;;;;;;6216040;28;20148;-68
2023/10/20 11:37:13;;;;;;;5.18;0.85;;;21.20;68.20;;;;;;6217859;28;20073;-68
2023/10/20 11:40:15;;;;;;;1.30;0.82;;;21.20;67.50;;;;;;6215767;28;20038;-66
2023/10/20 11:43:18;;;;;;;2.65;1.35;;;21.10;67.20;;;;;;6215770;28;20025;-65
2023/10/20 11:46:21;;;;;;;7.65;3.08;;;21.30;67.10;;;;;;6215676;28;20052;-67
2023/10/20 11:49:29;;;;;;;13.68;4.53;;;21.30;66.90;;;;;;6217174;28;20507;-68
2023/10/20 11:52:30;;;;;;;9.10;2.83;;;21.40;66.70;;;;;;6215692;28;20041;-67
2023/10/20 11:55:32;;;;;;;9.15;2.40;;;21.50;66.80;;;;;;6217018;28;20029;-66
2023/10/20 11:58:33;;;;;;;1.50;1.05;;;22.10;66.50;;;;;;6199188;28;20078;-66
2023/10/20 12:01:34;;;;;;;1.90;0.90;;;22.60;65.00;;;;;;6216543;28;20497;-69
2023/10/20 12:04:35;;;;;;;1.98;0.90;;;22.80;63.60;;;;;;6216851;28;20365;-69
2023/10/20 12:07:40;;;;;;;1.98;1.10;;;23.00;63.00;;;;;;6216656;28;20478;-67
2023/10/20 12:10:41;;;;;;;7.45;1.23;;;23.20;62.50;;;;;;6215666;28;20334;-65
2023/10/20 12:13:46;;;;;;;2.20;1.00;;;23.20;61.70;;;;;;6216715;28;20030;-66
2023/10/20 12:16:50;;;;;;;1.98;0.75;;;23.20;62.70;;;;;;6216445;28;20034;-67
2023/10/20 12:19:52;;;;;;;2.35;1.48;;;23.10;61.50;;;;;;6215733;28;20113;-67
2023/10/20 12:22:58;;;;;;;0.88;0.85;;;23.20;61.20;;;;;;6215865;28;20518;-67
2023/10/20 12:26:03;;;;;;;1.05;0.75;;;23.40;60.40;;;;;;6212841;28;20039;-66
2023/10/20 12:29:06;;;;;;;1.70;0.80;;;23.70;59.40;;;;;;6215373;28;20033;-68
2023/10/20 12:32:12;;;;;;;2.72;0.80;;;24.00;58.80;;;;;;6216012;28;20116;-66
2023/10/20 12:35:14;;;;;;;0.80;0.35;;;24.10;58.60;;;;;;6216079;28;20084;-67
2023/10/20 12:38:16;;;;;;;1.42;0.35;;;24.20;57.70;;;;;;6217367;28;20056;-67
2023/10/20 12:41:21;;;;;;;1.80;1.00;;;24.10;56.80;;;;;;6216714;28;20038;-66
2023/10/20 12:44:47;;;;;;;2.92;0.80;;;23.90;56.50;;;;;;6215809;28;20041;-66
2023/10/20 12:47:49;;;;;;;0.95;0.30;;;23.60;56.30;;;;;;6215404;28;20125;-65
2023/10/20 12:50:51;;;;;;;2.35;1.25;;;23.30;56.60;;;;;;6215539;28;20471;-67
2023/10/20 12:53:51;;;;;;;2.97;0.50;;;23.20;57.20;;;;;;6215556;28;20041;-65
2023/10/20 12:56:55;;;;;;;2.55;0.63;;;23.00;57.50;;;;;;6213968;28;20069;-66
2023/10/20 12:59:56;;;;;;;4.38;0.60;;;23.00;57.20;;;;;;6214934;28;20037;-65
2023/10/20 13:02:58;;;;;;;1.35;0.70;;;22.80;57.20;;;;;;6215159;28;20030;-67
2023/10/20 13:05:59;;;;;;;2.42;0.80;;;22.60;57.50;;;;;;6213745;28;20103;-65
2023/10/20 13:09:25;;;;;;;1.45;0.77;;;22.50;58.00;;;;;;6215726;28;20041;-65
2023/10/20 13:12:27;;;;;;;1.70;0.75;;;22.50;58.30;;;;;;6215795;28;20068;-66
2023/10/20 13:15:28;;;;;;;3.10;0.77;;;22.40;58.60;;;;;;6215251;28;20045;-65
2023/10/20 13:18:30;;;;;;;1.67;0.85;;;22.40;58.80;;;;;;6214970;28;20107;-66
2023/10/20 13:21:32;;;;;;;1.80;0.93;;;22.40;58.80;;;;;;6215142;28;20029;-71
2023/10/20 13:24:33;;;;;;;1.27;0.75;;;22.40;58.70;;;;;;6215196;28;20045;-66
2023/10/20 13:27:35;;;;;;;2.83;0.73;;;22.40;58.60;;;;;;6215061;28;20521;-67
2023/10/20 13:30:38;;;;;;;4.20;1.45;;;22.40;58.70;;;;;;6214763;28;20030;-66
2023/10/20 13:33:38;;;;;;;3.80;1.60;;;22.40;58.70;;;;;;6214822;28;20057;-66
2023/10/20 13:36:39;;;;;;;1.88;0.52;;;22.40;59.00;;;;;;6215130;28;20120;-66
2023/10/20 13:39:40;;;;;;;1.90;0.50;;;22.50;59.20;;;;;;6214483;28;20088;-67
2023/10/20 13:42:41;;;;;;;0.65;0.65;;;22.50;59.10;;;;;;6213061;28;20586;-66
2023/10/20 13:45:42;;;;;;;1.52;0.70;;;22.50;58.80;;;;;;6213385;28;20041;-66
2023/10/20 13:48:43;;;;;;;1.05;0.60;;;22.50;58.50;;;;;;6214674;28;20037;-68
2023/10/20 13:51:44;;;;;;;1.30;0.60;;;22.60;57.00;;;;;;6214625;28;20030;-67
2023/10/20 13:54:45;;;;;;;1.23;0.57;;;22.70;55.70;;;;;;6212298;28;20045;-66
2023/10/20 13:57:47;;;;;;;0.57;0.30;;;22.80;56.00;;;;;;6214186;28;20159;-68
2023/10/20 14:00:50;;;;;;;0.32;0.22;;;23.00;54.80;;;;;;6213729;28;20108;-66
2023/10/20 14:03:52;;;;;;;0.50;0.30;;;23.10;53.80;;;;;;6214006;28;20046;-65
2023/10/20 14:06:53;;;;;;;0.70;0.28;;;23.20;51.60;;;;;;6214013;28;20049;-67
2023/10/20 14:09:54;;;;;;;0.80;0.50;;;23.30;51.60;;;;;;6213610;28;20042;-66
2023/10/20 14:12:56;;;;;;;0.20;0.20;;;23.30;51.60;;;;;;6213798;28;20124;-68
2023/10/20 14:15:57;;;;;;;0.22;0.20;;;23.40;50.20;;;;;;6214019;28;20449;-68
2023/10/20 14:18:58;;;;;;;1.52;0.30;;;23.50;48.80;;;;;;6211062;28;20084;-66
2023/10/20 14:21:59;;;;;;;0.30;0.30;;;23.50;48.60;;;;;;6212462;28;20029;-70
2023/10/20 14:25:00;;;;;;;0.88;0.30;;;23.50;49.40;;;;;;6213860;28;20022;-69
2023/10/20 14:28:01;;;;;;;0.50;0.35;;;23.60;49.60;;;;;;6213399;28;20033;-66
2023/10/20 14:31:05;;;;;;;1.10;0.28;;;23.60;48.70;;;;;;6214875;28;20056;-66
2023/10/20 14:34:06;;;;;;;0.30;0.28;;;23.60;49.20;;;;;;6216986;28;20045;-66
2023/10/20 14:37:07;;;;;;;0.52;0.40;;;23.80;49.00;;;;;;6194161;28;20046;-66
2023/10/20 14:40:09;;;;;;;1.08;0.40;;;23.80;49.40;;;;;;6187431;28;20034;-66
2023/10/20 14:43:10;;;;;;;2.08;0.40;;;23.90;48.90;;;;;;6198850;28;20037;-66
2023/10/20 14:46:11;;;;;;;1.05;0.50;;;24.00;48.00;;;;;;6213302;28;20438;-67
2023/10/20 14:49:12;;;;;;;0.85;0.47;;;24.20;47.90;;;;;;6211516;28;20037;-67
2023/10/20 14:52:13;;;;;;;0.88;0.40;;;24.10;47.80;;;;;;6211636;28;20034;-65
2023/10/20 14:55:14;;;;;;;0.40;0.32;;;24.20;47.70;;;;;;6212693;28;20025;-66
2023/10/20 14:58:15;;;;;;;5.88;0.77;;;24.30;47.80;;;;;;6210983;28;20104;-66
2023/10/20 15:01:16;;;;;;;0.47;0.30;;;24.30;47.10;;;;;;6213367;28;20026;-68
2023/10/20 15:04:19;;;;;;;0.73;0.50;;;24.30;47.40;;;;;;6214505;28;20056;-66
2023/10/20 15:07:20;;;;;;;0.38;0.30;;;24.20;47.30;;;;;;6216430;28;20037;-65
2023/10/20 15:10:21;;;;;;;1.02;0.30;;;24.20;46.30;;;;;;6217354;28;20693;-67
2023/10/20 15:13:22;;;;;;;1.45;0.30;;;24.10;46.70;;;;;;6217530;28;20037;-66
2023/10/20 15:16:23;;;;;;;0.57;0.45;;;24.10;47.00;;;;;;6216950;28;20458;-68
2023/10/20 15:19:24;;;;;;;0.57;0.43;;;24.00;46.60;;;;;;6215584;28;20074;-66
2023/10/20 15:22:25;;;;;;;1.35;0.57;;;24.00;47.00;;;;;;6214469;28;20509;-67
2023/10/20 15:25:26;;;;;;;1.58;0.60;;;24.00;47.50;;;;;;6217841;28;20386;-66
2023/10/20 15:28:29;;;;;;;0.95;0.50;;;23.90;47.80;;;;;;6217204;28;20481;-66
2023/10/20 15:31:30;;;;;;;4.68;0.52;;;23.90;47.90;;;;;;6217528;28;20080;-68
2023/10/20 15:34:31;;;;;;;0.43;0.38;;;23.80;48.00;;;;;;6217501;28;20156;-65
2023/10/20 15:37:34;;;;;;;3.05;0.68;;;23.80;48.10;;;;;;6217442;28;20112;-68
2023/10/20 15:40:34;;;;;;;1.70;0.60;;;23.70;47.90;;;;;;6215853;28;20025;-65
2023/10/20 15:43:35;;;;;;;0.93;0.60;;;23.60;48.40;;;;;;6217335;28;20574;-66
2023/10/20 15:46:36;;;;;;;3.45;0.68;;;23.40;48.70;;;;;;6216964;28;20037;-65
2023/10/20 15:49:38;;;;;;;1.13;0.47;;;23.20;49.60;;;;;;6216386;28;20033;-66
2023/10/20 15:52:39;;;;;;;0.32;0.32;;;22.90;50.60;;;;;;6216487;28;20088;-67
2023/10/20 15:55:42;;;;;;;2.05;0.57;;;22.50;51.50;;;;;;6216930;28;20041;-66
2023/10/20 15:58:43;;;;;;;1.92;0.68;;;22.20;52.50;;;;;;6215100;28;20034;-65
2023/10/20 16:01:44;;;;;;;1.90;0.40;;;21.90;53.40;;;;;;6216530;28;20105;-66
2023/10/20 16:04:46;;;;;;;0.55;0.40;;;21.70;54.20;;;;;;6216058;28;20389;-65
2023/10/20 16:07:47;;;;;;;1.42;0.60;;;21.50;54.90;;;;;;6216427;28;20817;-66
2023/10/20 16:10:49;;;;;;;1.33;0.85;;;21.40;55.30;;;;;;6215990;28;20042;-66
2023/10/20 16:13:51;;;;;;;4.20;0.95;;;21.30;56.00;;;;;;6216445;28;20061;-66
2023/10/20 16:16:54;;;;;;;0.70;0.40;;;21.20;56.50;;;;;;6215331;28;20036;-64
2023/10/20 16:19:55;;;;;;;0.93;0.55;;;21.00;56.80;;;;;;6214368;28;20038;-65
2023/10/20 16:22:56;;;;;;;1.52;0.82;;;20.90;57.60;;;;;;6216430;28;20026;-66
2023/10/20 16:25:57;;;;;;;4.68;0.68;;;20.80;58.00;;;;;;6216985;28;20045;-68
2023/10/20 16:28:58;;;;;;;2.22;1.00;;;20.70;58.90;;;;;;6218961;28;20512;-66
2023/10/20 16:31:59;;;;;;;0.95;0.77;;;20.60;58.40;;;;;;6217729;28;20029;-66
2023/10/20 16:35:00;;;;;;;1.42;0.90;;;20.60;58.60;;;;;;6212177;28;20129;-64
2023/10/20 16:38:01;;;;;;;3.65;1.25;;;20.60;58.70;;;;;;6210038;28;20168;-65
2023/10/20 16:41:02;;;;;;;9.18;1.38;;;20.60;58.90;;;;;;6216090;28;20113;-66
2023/10/20 16:44:03;;;;;;;5.05;0.80;;;20.70;58.90;;;;;;6215809;28;20022;-65
2023/10/20 16:47:04;;;;;;;1.55;0.47;;;20.70;58.50;;;;;;6215833;28;20060;-68
2023/10/20 16:50:05;;;;;;;1.40;0.52;;;20.80;58.20;;;;;;6216178;28;20035;-65
2023/10/20 16:53:06;;;;;;;2.22;0.65;;;20.80;58.00;;;;;;6216055;28;20072;-67
2023/10/20 16:56:08;;;;;;;2.45;0.90;;;20.80;57.90;;;;;;6216101;28;20038;-68